M.v.bossclip Trader — C6R2085 — position and weather

sailwx.info

Track history (hours):
 
Tides and Currents Weather Stations Pressure Air Temp Water Temp Dewpoint Dewpoint Depression Visibility Wind Speed Wind Dir Waves Ship Positions

M.v.bossclip Trader

Last reported at 2017-Sep-16 04:24 UTC. Time now 2017-Sep-23 16:40 UTC.
Position N 38°34' E 024°25'.

Length 179 m; draft 9.8 m.

Type: Cargo ship. MMSI: 309402000.

Date/timePositionNaut miles runAvg speedWind from/ knotsBaromVisibWave heightAir tempDewpointWater temp
2017-Sep-16 04:24N 38°34' E 024°25'7510.9
2017-Sep-15 21:33N 37°20' E 024°16'111.8
2017-Sep-15 21:29N 37°19' E 024°16'511.7
2017-Sep-15 21:01N 37°14' E 024°13'611.8
2017-Sep-15 20:30N 37°09' E 024°10'611.6
2017-Sep-15 20:00N 37°03' E 024°07'611.5
2017-Sep-15 19:30N 36°58' E 024°04'611.8
2017-Sep-15 19:00N 36°53' E 024°01'611.9
2017-Sep-15 18:30N 36°48' E 023°57'612.1
2017-Sep-15 18:00N 36°43' E 023°53'612.2
2017-Sep-15 17:31N 36°39' E 023°47'612.1
2017-Sep-15 17:01N 36°35' E 023°41'612.0
2017-Sep-15 16:30N 36°32' E 023°34'1012.6
2017-Sep-15 15:41N 36°27' E 023°23'212.8
2017-Sep-15 15:30N 36°26' E 023°21'42311.6
2017-Sep-14 03:12N 36°20' E 014°36'313.0
2017-Sep-14 03:00N 36°20' E 014°33'713.0
2017-Sep-14 02:27N 36°20' E 014°24'613.1
2017-Sep-14 02:00N 36°20' E 014°16'612.9
2017-Sep-14 01:30N 36°20' E 014°08'712.7
2017-Sep-14 00:59N 36°20' E 014°00'612.8
2017-Sep-14 00:30N 36°22' E 013°53'612.7
2017-Sep-14 00:00N 36°25' E 013°46'612.3
2017-Sep-13 23:30N 36°27' E 013°39'612.3
2017-Sep-13 23:00N 36°30' E 013°32'612.2
2017-Sep-13 22:30N 36°32' E 013°25'611.9
2017-Sep-13 22:00N 36°35' E 013°18'612.0
2017-Sep-13 21:30N 36°37' E 013°11'612.1
2017-Sep-13 21:00N 36°40' E 013°05'612.0
2017-Sep-13 20:30N 36°42' E 012°58'611.9
2017-Sep-13 20:00N 36°45' E 012°51'612.0
2017-Sep-13 19:30N 36°47' E 012°45'611.8
2017-Sep-13 19:00N 36°50' E 012°38'611.8
2017-Sep-13 18:30N 36°52' E 012°31'611.7
2017-Sep-13 17:58N 36°55' E 012°24'611.8
2017-Sep-13 17:27N 36°57' E 012°17'43812.0
2017-Sep-12 05:05N 37°02' E 003°08'113.0
2017-Sep-12 05:00N 37°02' E 003°07'2013.1
2017-Sep-12 03:30N 36°59' E 002°43'713.1
2017-Sep-12 03:00N 36°58' E 002°35'612.9
2017-Sep-12 02:30N 36°57' E 002°27'612.6
2017-Sep-12 02:00N 36°56' E 002°19'2712.0
2017-Sep-11 23:45N 36°52' E 001°45'1411.7
2017-Sep-11 22:31N 36°50' E 001°28'112.2
2017-Sep-11 22:26N 36°49' E 001°26'1012.5
2017-Sep-11 21:37N 36°48' E 001°14'112.5
2017-Sep-11 21:30N 36°48' E 001°12'612.2
2017-Sep-11 21:00N 36°47' E 001°04'612.1
2017-Sep-11 20:30N 36°46' E 000°57'612.2
2017-Sep-11 20:00N 36°45' E 000°49'612.0
2017-Sep-11 19:30N 36°44' E 000°42'612.0
2017-Sep-11 19:00N 36°43' E 000°35'612.0
2017-Sep-11 18:30N 36°42' E 000°27'612.0
2017-Sep-11 18:00N 36°41' E 000°20'611.8
2017-Sep-11 17:30N 36°40' E 000°13'612.0
2017-Sep-11 17:00N 36°39' E 000°05'612.2
2017-Sep-11 16:30N 36°38' W 000°02'612.4
2017-Sep-11 16:00N 36°37' W 000°10'612.4
2017-Sep-11 15:31N 36°36' W 000°17'612.2
2017-Sep-11 14:59N 36°35' W 000°25'1212.1
2017-Sep-11 13:58N 36°33' W 000°41'612.1
2017-Sep-11 13:30N 36°32' W 000°47'2212.3
2017-Sep-11 11:40N 36°28' W 001°15'513.6
2017-Sep-11 11:19N 36°27' W 001°21'18813.0
2017-Sep-10 20:51N 36°01' W 005°12'514.8
2017-Sep-10 20:30N 36°00' W 005°18'815.3
2017-Sep-10 20:00N 35°58' W 005°27'56511.9
2017-Sep-08 20:34N 38°26' W 016°52'111.8
2017-Sep-08 20:27N 38°27' W 016°54'2511.8
2017-Sep-08 18:21N 38°35' W 017°24'53712.0
2017-Sep-06 21:27N 40°39' W 028°42'2411.3
2017-Sep-06 19:19N 40°43' W 029°13'511.4
2017-Sep-06 18:54N 40°44' W 029°19'1211.3
2017-Sep-06 17:51N 40°46' W 029°35'411.7
2017-Sep-06 17:30N 40°46' W 029°40'711.3
2017-Sep-06 16:53N 40°48' W 029°49'611.3
2017-Sep-06 16:23N 40°49' W 029°56'411.5
2017-Sep-06 16:00N 40°49' W 030°02'611.6
2017-Sep-06 15:30N 40°50' W 030°10'611.5
2017-Sep-06 15:00N 40°51' W 030°17'611.4
2017-Sep-06 14:30N 40°51' W 030°25'611.6
2017-Sep-06 13:59N 40°52' W 030°33'611.9
2017-Sep-06 13:30N 40°53' W 030°40'611.8
2017-Sep-06 13:00N 40°54' W 030°48'811.8
2017-Sep-06 12:21N 40°55' W 030°58'  
Track history (hours):
 
Tides and Currents Weather Stations Pressure Air Temp Water Temp Dewpoint Dewpoint Depression Visibility Wind Speed Wind Dir Waves Ship Positions

M.v.bossclip Trader

Last reported at 2017-Sep-16 04:24 UTC. Time now 2017-Sep-23 16:40 UTC.
Position N 38°34' E 024°25'.

Length 179 m; draft 9.8 m.

Type: Cargo ship. MMSI: 309402000.

Date/timePositionNaut miles runAvg speedWind from/ knotsBaromVisibWave heightAir tempDewpointWater temp
2017-Sep-16 04:24N 38°34' E 024°25'7510.9
2017-Sep-15 21:33N 37°20' E 024°16'111.8
2017-Sep-15 21:29N 37°19' E 024°16'511.7
2017-Sep-15 21:01N 37°14' E 024°13'611.8
2017-Sep-15 20:30N 37°09' E 024°10'611.6
2017-Sep-15 20:00N 37°03' E 024°07'611.5
2017-Sep-15 19:30N 36°58' E 024°04'611.8
2017-Sep-15 19:00N 36°53' E 024°01'611.9
2017-Sep-15 18:30N 36°48' E 023°57'612.1
2017-Sep-15 18:00N 36°43' E 023°53'612.2
2017-Sep-15 17:31N 36°39' E 023°47'612.1
2017-Sep-15 17:01N 36°35' E 023°41'612.0
2017-Sep-15 16:30N 36°32' E 023°34'1012.6
2017-Sep-15 15:41N 36°27' E 023°23'212.8
2017-Sep-15 15:30N 36°26' E 023°21'42311.6
2017-Sep-14 03:12N 36°20' E 014°36'313.0
2017-Sep-14 03:00N 36°20' E 014°33'713.0
2017-Sep-14 02:27N 36°20' E 014°24'613.1
2017-Sep-14 02:00N 36°20' E 014°16'612.9
2017-Sep-14 01:30N 36°20' E 014°08'712.7
2017-Sep-14 00:59N 36°20' E 014°00'612.8
2017-Sep-14 00:30N 36°22' E 013°53'612.7
2017-Sep-14 00:00N 36°25' E 013°46'612.3
2017-Sep-13 23:30N 36°27' E 013°39'612.3
2017-Sep-13 23:00N 36°30' E 013°32'612.2
2017-Sep-13 22:30N 36°32' E 013°25'611.9
2017-Sep-13 22:00N 36°35' E 013°18'612.0
2017-Sep-13 21:30N 36°37' E 013°11'612.1
2017-Sep-13 21:00N 36°40' E 013°05'612.0
2017-Sep-13 20:30N 36°42' E 012°58'611.9
2017-Sep-13 20:00N 36°45' E 012°51'612.0
2017-Sep-13 19:30N 36°47' E 012°45'611.8
2017-Sep-13 19:00N 36°50' E 012°38'611.8
2017-Sep-13 18:30N 36°52' E 012°31'611.7
2017-Sep-13 17:58N 36°55' E 012°24'611.8
2017-Sep-13 17:27N 36°57' E 012°17'43812.0
2017-Sep-12 05:05N 37°02' E 003°08'113.0
2017-Sep-12 05:00N 37°02' E 003°07'2013.1
2017-Sep-12 03:30N 36°59' E 002°43'713.1
2017-Sep-12 03:00N 36°58' E 002°35'612.9
2017-Sep-12 02:30N 36°57' E 002°27'612.6
2017-Sep-12 02:00N 36°56' E 002°19'2712.0
2017-Sep-11 23:45N 36°52' E 001°45'1411.7
2017-Sep-11 22:31N 36°50' E 001°28'112.2
2017-Sep-11 22:26N 36°49' E 001°26'1012.5
2017-Sep-11 21:37N 36°48' E 001°14'112.5
2017-Sep-11 21:30N 36°48' E 001°12'612.2
2017-Sep-11 21:00N 36°47' E 001°04'612.1
2017-Sep-11 20:30N 36°46' E 000°57'612.2
2017-Sep-11 20:00N 36°45' E 000°49'612.0
2017-Sep-11 19:30N 36°44' E 000°42'612.0
2017-Sep-11 19:00N 36°43' E 000°35'612.0
2017-Sep-11 18:30N 36°42' E 000°27'612.0
2017-Sep-11 18:00N 36°41' E 000°20'611.8
2017-Sep-11 17:30N 36°40' E 000°13'612.0
2017-Sep-11 17:00N 36°39' E 000°05'612.2
2017-Sep-11 16:30N 36°38' W 000°02'612.4
2017-Sep-11 16:00N 36°37' W 000°10'612.4
2017-Sep-11 15:31N 36°36' W 000°17'612.2
2017-Sep-11 14:59N 36°35' W 000°25'1212.1
2017-Sep-11 13:58N 36°33' W 000°41'612.1
2017-Sep-11 13:30N 36°32' W 000°47'2212.3
2017-Sep-11 11:40N 36°28' W 001°15'513.6
2017-Sep-11 11:19N 36°27' W 001°21'18813.0
2017-Sep-10 20:51N 36°01' W 005°12'514.8
2017-Sep-10 20:30N 36°00' W 005°18'815.3
2017-Sep-10 20:00N 35°58' W 005°27'56511.9
2017-Sep-08 20:34N 38°26' W 016°52'111.8
2017-Sep-08 20:27N 38°27' W 016°54'2511.8
2017-Sep-08 18:21N 38°35' W 017°24'53712.0
2017-Sep-06 21:27N 40°39' W 028°42'2411.3
2017-Sep-06 19:19N 40°43' W 029°13'511.4
2017-Sep-06 18:54N 40°44' W 029°19'1211.3
2017-Sep-06 17:51N 40°46' W 029°35'411.7
2017-Sep-06 17:30N 40°46' W 029°40'711.3
2017-Sep-06 16:53N 40°48' W 029°49'611.3
2017-Sep-06 16:23N 40°49' W 029°56'411.5
2017-Sep-06 16:00N 40°49' W 030°02'611.6
2017-Sep-06 15:30N 40°50' W 030°10'611.5
2017-Sep-06 15:00N 40°51' W 030°17'611.4
2017-Sep-06 14:30N 40°51' W 030°25'611.6
2017-Sep-06 13:59N 40°52' W 030°33'611.9
2017-Sep-06 13:30N 40°53' W 030°40'611.8
2017-Sep-06 13:00N 40°54' W 030°48'811.8
2017-Sep-06 12:21N 40°55' W 030°58'  

Dump ship's entire track history